Time;durP1;ratioP1;P1;durP2;ratioP2;P2;SDS_P1;SDS_P2;PMS_P1;PMS_P2;Temp;Humidity;BMP_temperature;BMP_pressure;BME280_temperature;BME280_humidity;BME280_pressure;Samples;Min_cycle;Max_cycle;Signal;HPM_P1;HPM_P2
2021/08/06 00:00:07;;;;;;;;;3.00;2.00;;;;;19.74;58.34;99911.69;5079894;28;45185;-58
2021/08/06 00:02:33;;;;;;;;;3.00;3.00;;;;;19.72;58.80;99922.44;5080164;28;47027;-58
2021/08/06 00:04:58;;;;;;;;;2.25;2.25;;;;;19.73;58.73;99915.28;5079571;28;45697;-58
2021/08/06 00:07:24;;;;;;;;;2.50;2.00;;;;;19.75;58.83;99916.06;5080147;28;45387;-58
2021/08/06 00:09:50;;;;;;;;;2.25;2.25;;;;;19.75;58.64;99913.38;5078531;28;45595;-58
2021/08/06 00:12:15;;;;;;;;;2.50;1.50;;;;;19.73;58.94;99916.13;5080020;28;45267;-58
2021/08/06 00:14:40;;;;;;;;;4.00;2.00;;;;;19.74;58.71;99925.84;5079731;28;45233;-58
2021/08/06 00:17:06;;;;;;;;;6.50;2.00;;;;;19.73;58.50;99921.47;5080081;28;45296;-58
2021/08/06 00:19:32;;;;;;;;;3.25;3.25;;;;;19.76;58.26;99923.06;5079590;28;45371;-58
2021/08/06 00:21:57;;;;;;;;;2.00;2.00;;;;;19.75;58.31;99921.38;5079536;28;47116;-58
2021/08/06 00:24:23;;;;;;;;;5.00;2.75;;;;;19.65;58.23;99929.97;5083329;28;45226;-58
2021/08/06 00:26:48;;;;;;;;;5.25;4.00;;;;;19.76;58.23;99923.06;5083629;28;45306;-57
2021/08/06 00:29:14;;;;;;;;;3.50;2.00;;;;;19.76;58.72;99929.28;5083405;28;45476;-57
2021/08/06 00:31:39;;;;;;;;;3.00;2.75;;;;;19.76;58.70;99921.28;5081846;27;47996;-57
2021/08/06 00:34:05;;;;;;;;;3.00;1.75;;;;;19.71;58.62;99931.38;5082867;28;45285;-57
2021/08/06 00:36:31;;;;;;;;;3.25;2.00;;;;;19.67;58.31;99921.00;5083440;28;45342;-57
2021/08/06 00:38:56;;;;;;;;;4.25;1.00;;;;;19.72;58.45;99913.56;5083173;28;45311;-57
2021/08/06 00:41:22;;;;;;;;;1.75;1.75;;;;;19.68;58.32;99918.25;5083099;27;46969;-57
2021/08/06 00:43:47;;;;;;;;;4.00;3.00;;;;;19.70;58.58;99931.47;5082921;28;45252;-57
2021/08/06 00:46:16;;;;;;;;;3.25;2.50;;;;;19.72;58.74;99918.91;5083244;28;45325;-57
2021/08/06 00:48:42;;;;;;;;;3.75;3.00;;;;;19.71;58.48;99922.53;5083026;28;45251;-57
2021/08/06 00:51:07;;;;;;;;;3.00;2.00;;;;;19.73;58.57;99926.78;5082619;27;46176;-57
2021/08/06 00:53:33;;;;;;;;;1.00;1.00;;;;;19.70;58.75;99920.81;5082887;28;45294;-57
2021/08/06 00:55:59;;;;;;;;;4.50;2.25;;;;;19.64;58.34;99925.59;5083067;28;45255;-57
2021/08/06 00:58:24;;;;;;;;;1.00;1.00;;;;;19.72;58.54;99929.56;5082803;28;45224;-57
2021/08/06 01:00:50;;;;;;;;;4.50;4.50;;;;;19.71;58.90;99923.38;5082781;27;46291;-57
2021/08/06 01:03:26;;;;;;;;;1.25;1.25;;;;;19.71;58.39;99933.19;5082801;28;45433;-57
2021/08/06 01:06:07;;;;;;;;;2.25;1.75;;;;;19.70;58.25;99931.47;5081679;28;45365;-57
2021/08/06 01:08:55;;;;;;;;;3.00;2.00;;;;;19.64;58.42;99925.59;5082571;28;45247;-57
2021/08/06 01:11:25;;;;;;;;;3.00;3.00;;;;;19.63;58.86;99934.56;5081201;27;47595;-57
2021/08/06 01:13:54;;;;;;;;;3.50;1.00;;;;;19.62;58.66;99931.97;5081243;28;45279;-57
2021/08/06 01:16:29;;;;;;;;;1.00;1.00;;;;;19.63;58.43;99925.69;5082536;28;45246;-57
2021/08/06 01:19:03;;;;;;;;;4.00;2.00;;;;;19.64;58.70;99930.06;5082485;28;45452;-57
2021/08/06 01:21:40;;;;;;;;;1.50;1.00;;;;;19.64;58.61;99933.56;5082064;27;46350;-57
2021/08/06 01:24:08;;;;;;;;;3.25;2.00;;;;;19.63;58.53;99931.91;5082293;28;45488;-57
2021/08/06 01:26:35;;;;;;;;;3.25;2.00;;;;;19.61;58.56;99925.78;5082799;28;45350;-57
2021/08/06 01:29:03;;;;;;;;;2.75;2.00;;;;;19.64;58.56;99927.41;5082142;28;45503;-57
2021/08/06 01:31:29;;;;;;;;;2.00;2.00;;;;;19.57;58.39;99932.28;5082125;27;46072;-57
2021/08/06 01:33:54;;;;;;;;;3.25;1.75;;;;;19.60;58.40;99931.22;5081157;28;45438;-57
2021/08/06 01:36:20;;;;;;;;;1.00;1.00;;;;;19.52;58.51;99937.06;5082265;28;45294;-57
2021/08/06 01:38:46;;;;;;;;;3.25;2.50;;;;;19.56;58.45;99935.91;5082055;28;45453;-57
2021/08/06 01:41:23;;;;;;;;;2.00;1.25;;;;;19.53;58.57;99920.09;5082267;27;46954;-57
2021/08/06 01:44:11;;;;;;;;;2.25;1.75;;;;;19.54;58.31;99926.28;5081963;28;45267;-57
2021/08/06 01:46:39;;;;;;;;;1.75;1.75;;;;;19.53;58.69;99927.25;5082340;27;45457;-57
2021/08/06 01:49:17;;;;;;;;;3.00;2.00;;;;;19.53;58.53;99927.25;5080493;28;45246;-57
2021/08/06 01:51:47;;;;;;;;;3.75;2.00;;;;;19.51;59.02;99922.03;5080328;27;46229;-57
2021/08/06 01:54:15;;;;;;;;;2.00;1.00;;;;;19.49;58.64;99934.56;5082177;28;45263;-57
2021/08/06 01:56:41;;;;;;;;;7.25;3.00;;;;;19.49;58.87;99930.09;5082069;28;45243;-57
2021/08/06 01:59:08;;;;;;;;;3.00;3.00;;;;;19.50;58.89;99928.31;5080711;28;45288;-57
2021/08/06 02:01:34;;;;;;;;;3.00;3.00;;;;;19.46;58.64;99924.13;5081541;28;46368;-57
2021/08/06 02:04:00;;;;;;;;;3.00;3.00;;;;;19.45;58.79;99917.94;5081573;28;45288;-57
2021/08/06 02:06:26;;;;;;;;;4.25;2.50;;;;;19.46;58.48;99918.81;5081927;28;45225;-57
2021/08/06 02:08:51;;;;;;;;;4.00;2.50;;;;;19.46;58.80;99913.47;5080551;28;45567;-57
2021/08/06 02:11:19;;;;;;;;;2.00;2.00;;;;;19.44;58.79;99916.22;5080230;27;47298;-57
2021/08/06 02:13:44;;;;;;;;;2.25;2.25;;;;;19.42;58.35;99927.91;5081656;28;45223;-57
2021/08/06 02:16:10;;;;;;;;;3.25;3.25;;;;;19.38;58.91;99931.75;5081711;28;45285;-57
2021/08/06 02:18:37;;;;;;;;;2.00;2.00;;;;;19.36;58.42;99913.22;5081776;28;45280;-57
2021/08/06 02:21:11;;;;;;;;;3.25;3.00;;;;;19.37;58.52;99927.38;5081055;27;46338;-57
2021/08/06 02:23:37;;;;;;;;;2.25;2.25;;;;;19.34;58.61;99920.44;5081559;28;45334;-57
2021/08/06 02:26:06;;;;;;;;;5.00;3.50;;;;;19.33;58.69;99921.38;5081403;28;45345;-57
2021/08/06 02:28:34;;;;;;;;;4.75;2.00;;;;;19.30;58.16;99927.75;5080129;28;45247;-57
2021/08/06 02:31:00;;;;;;;;;4.00;3.00;;;;;19.30;58.37;99934.91;5080994;27;45313;-57
2021/08/06 02:33:26;;;;;;;;;2.75;2.75;;;;;19.29;58.26;99946.50;5081166;28;45524;-57
2021/08/06 02:35:52;;;;;;;;;1.00;1.00;;;;;19.30;58.21;99945.56;5080098;28;45353;-57
2021/08/06 02:38:22;;;;;;;;;4.00;2.25;;;;;19.28;58.41;99947.44;5079756;28;45580;-57
2021/08/06 02:40:48;;;;;;;;;4.00;2.00;;;;;19.25;58.35;99953.81;5081062;28;47113;-57
2021/08/06 02:43:15;;;;;;;;;2.25;2.25;;;;;19.23;58.48;99946.88;5081082;28;45324;-57
2021/08/06 02:45:40;;;;;;;;;4.00;2.25;;;;;19.22;58.31;99954.03;5081026;28;45338;-57
2021/08/06 02:48:06;;;;;;;;;2.75;2.00;;;;;19.21;58.28;99949.66;5081193;28;45452;-57
2021/08/06 02:50:31;;;;;;;;;2.50;2.00;;;;;19.17;58.48;99950.81;5080575;27;46251;-57
2021/08/06 02:52:57;;;;;;;;;1.00;1.00;;;;;19.16;58.76;99965.91;5081274;28;45293;-57
2021/08/06 02:55:22;;;;;;;;;4.00;4.00;;;;;19.15;58.46;99948.22;5079932;28;45360;-57
2021/08/06 02:57:48;;;;;;;;;4.50;2.75;;;;;19.12;58.36;99951.09;5081060;28;45231;-57
2021/08/06 03:00:14;;;;;;;;;1.50;1.50;;;;;19.11;58.18;99951.19;5080684;27;45963;-57
2021/08/06 03:02:39;;;;;;;;;2.00;2.00;;;;;19.11;58.48;99961.84;5081051;28;45378;-57
2021/08/06 03:05:05;;;;;;;;;3.50;3.00;;;;;19.08;58.44;99957.56;5080683;28;45310;-57
2021/08/06 03:07:30;;;;;;;;;3.00;2.00;;;;;19.07;58.26;99965.63;5081127;28;45322;-57
2021/08/06 03:09:56;;;;;;;;;3.00;2.00;;;;;19.08;58.23;99956.69;5080582;28;46277;-57
2021/08/06 03:12:21;;;;;;;;;2.75;1.00;;;;;19.06;58.11;99959.44;5080679;28;45240;-57
2021/08/06 03:14:47;;;;;;;;;2.00;2.00;;;;;19.06;58.04;99963.94;5080841;28;45284;-57
2021/08/06 03:17:12;;;;;;;;;1.00;1.00;;;;;19.02;58.30;99959.72;5080864;28;45219;-57
2021/08/06 03:19:37;;;;;;;;;1.00;1.00;;;;;19.04;58.13;99971.16;5080306;28;46053;-57
2021/08/06 03:22:03;;;;;;;;;1.25;1.00;;;;;19.03;57.90;99958.78;5080445;27;45484;-57
2021/08/06 03:24:28;;;;;;;;;4.00;2.00;;;;;19.04;57.97;99981.81;5080667;28;45363;-57
2021/08/06 03:26:54;;;;;;;;;1.75;1.00;;;;;19.01;57.83;99974.88;5080669;28;45363;-57
2021/08/06 03:29:19;;;;;;;;;1.75;1.75;;;;;18.97;57.94;99979.50;5080378;28;46199;-57
2021/08/06 03:31:44;;;;;;;;;3.00;1.00;;;;;18.96;58.32;99982.28;5080646;28;45427;-57
2021/08/06 03:34:10;;;;;;;;;2.25;1.00;;;;;18.94;58.16;99969.06;5080185;28;45274;-57
2021/08/06 03:36:37;;;;;;;;;2.50;1.75;;;;;18.93;58.01;99970.00;5080738;28;45142;-57
2021/08/06 03:39:03;;;;;;;;;2.50;2.50;;;;;18.94;58.00;99970.84;5080167;28;46186;-57
2021/08/06 03:41:28;;;;;;;;;5.00;2.00;;;;;18.92;58.00;99970.97;5080416;28;45272;-57
2021/08/06 03:43:53;;;;;;;;;1.50;1.50;;;;;18.91;57.96;99979.88;5080224;28;45340;-57
2021/08/06 03:46:19;;;;;;;;;2.75;2.75;;;;;18.88;57.90;99979.19;5080446;28;45326;-57
2021/08/06 03:48:44;;;;;;;;;5.00;2.00;;;;;18.86;58.09;99973.13;5080054;28;46164;-57
2021/08/06 03:51:09;;;;;;;;;2.50;2.50;;;;;18.87;57.79;99975.69;5080009;27;45342;-57
2021/08/06 03:53:34;;;;;;;;;1.25;1.25;;;;;18.88;58.11;99974.72;5080266;28;45346;-57
2021/08/06 03:56:00;;;;;;;;;2.00;0.50;;;;;18.87;57.87;99975.69;5080455;28;45329;-57
2021/08/06 03:58:25;;;;;;;;;4.00;3.00;;;;;18.78;57.59;99966.44;5082163;28;46728;-57
2021/08/06 04:00:50;;;;;;;;;3.75;2.00;;;;;18.79;57.85;99991.25;5083929;27;45344;-57
2021/08/06 04:03:16;;;;;;;;;2.00;1.75;;;;;18.74;58.07;100002.19;5083829;28;45233;-57
2021/08/06 04:05:41;;;;;;;;;2.00;2.00;;;;;18.74;57.77;99994.19;5083751;28;45299;-57
2021/08/06 04:08:09;;;;;;;;;2.00;2.00;;;;;18.74;57.95;100006.63;5083534;28;45920;-57
2021/08/06 04:10:35;;;;;;;;;2.75;2.00;;;;;18.72;57.68;99993.44;5083542;27;45417;-57
2021/08/06 04:13:00;;;;;;;;;3.75;1.25;;;;;18.71;57.76;100007.69;5083520;28;45264;-57
2021/08/06 04:15:26;;;;;;;;;2.75;2.00;;;;;18.68;57.67;100010.53;5083691;28;45519;-57
2021/08/06 04:17:52;;;;;;;;;2.00;0.00;;;;;18.66;57.68;99999.13;5083362;27;46351;-57
2021/08/06 04:20:17;;;;;;;;;3.00;3.00;;;;;18.64;57.77;99998.34;5083091;28;45255;-58
2021/08/06 04:22:43;;;;;;;;;4.25;1.50;;;;;18.66;57.60;100007.09;5083596;28;45259;-58
2021/08/06 04:25:10;;;;;;;;;3.50;1.00;;;;;18.64;57.66;100008.97;5083632;28;45383;-57
2021/08/06 04:27:36;;;;;;;;;2.25;1.75;;;;;18.62;57.50;100009.09;5083007;28;46027;-57
2021/08/06 04:30:03;;;;;;;;;1.25;1.25;;;;;18.61;57.65;100018.00;5083337;27;45311;-57
2021/08/06 04:32:28;;;;;;;;;1.00;1.00;;;;;18.58;57.63;100007.56;5082088;28;45544;-57
2021/08/06 04:34:53;;;;;;;;;3.25;1.00;;;;;18.57;57.51;100012.97;5083422;27;45207;-57
2021/08/06 04:37:19;;;;;;;;;2.00;2.00;;;;;18.57;57.10;100012.97;5083101;28;45253;-57
2021/08/06 04:39:44;;;;;;;;;3.25;1.50;;;;;18.54;57.75;100027.31;5083500;27;45259;-57
2021/08/06 04:42:09;;;;;;;;;1.00;1.00;;;;;18.54;57.36;100026.44;5083100;28;45229;-57
2021/08/06 04:44:36;;;;;;;;;0.50;0.50;;;;;18.54;57.18;100051.25;5083352;28;45455;-57
2021/08/06 04:47:05;;;;;;;;;1.00;1.00;;;;;18.49;57.09;100032.91;5082893;28;47009;-58
2021/08/06 04:49:31;;;;;;;;;3.00;3.00;;;;;18.53;57.08;100054.88;5082734;28;45224;-57
2021/08/06 04:51:57;;;;;;;;;2.00;1.50;;;;;18.49;57.03;100027.56;5082896;27;45459;-57
2021/08/06 04:54:22;;;;;;;;;1.75;1.75;;;;;18.48;57.09;100033.84;5083107;28;45220;-57
2021/08/06 04:56:47;;;;;;;;;1.00;1.00;;;;;18.46;57.66;100046.38;5082790;28;45470;-57
2021/08/06 04:59:13;;;;;;;;;2.25;1.25;;;;;18.48;57.40;100038.31;5083013;28;45161;-57
2021/08/06 05:01:38;;;;;;;;;1.75;1.00;;;;;18.44;56.88;100034.09;5082981;27;45520;-57
2021/08/06 05:04:04;;;;;;;;;1.50;1.50;;;;;18.44;57.34;100044.75;5082701;28;45215;-57
2021/08/06 05:06:29;;;;;;;;;2.00;0.00;;;;;18.44;57.33;100036.75;5064431;28;45245;-58
2021/08/06 05:08:55;;;;;;;;;1.00;1.00;;;;;18.46;57.55;100049.03;5080310;28;45241;-57
2021/08/06 05:11:20;;;;;;;;;3.00;1.50;;;;;18.50;57.41;100052.38;5082844;28;45235;-56
2021/08/06 05:13:46;;;;;;;;;1.00;1.00;;;;;18.53;57.53;100054.88;5082653;28;45318;-57
2021/08/06 05:16:11;;;;;;;;;3.25;1.50;;;;;18.51;57.42;100054.97;5082478;28;45437;-57
2021/08/06 05:18:40;;;;;;;;;2.00;2.00;;;;;18.51;57.37;100049.63;5082674;27;45262;-56
2021/08/06 05:21:06;;;;;;;;;4.00;1.75;;;;;18.52;57.64;100061.13;5081117;27;45333;-56
2021/08/06 05:23:32;;;;;;;;;2.00;2.00;;;;;18.57;57.32;100058.22;5082525;28;45429;-57
2021/08/06 05:25:57;;;;;;;;;1.75;1.00;;;;;18.57;57.57;100067.03;5080921;28;46239;-56
2021/08/06 05:28:22;;;;;;;;;2.00;1.00;;;;;18.58;57.15;100054.56;5081014;28;45241;-56
2021/08/06 05:30:48;;;;;;;;;2.50;1.25;;;;;18.61;57.57;100057.06;5080826;28;45247;-56
2021/08/06 05:33:13;;;;;;;;;2.00;0.00;;;;;18.64;57.37;100059.53;5082523;28;45449;-57
2021/08/06 05:35:39;;;;;;;;;1.25;1.25;;;;;18.68;57.40;100058.44;5081898;27;46192;-56
2021/08/06 05:38:05;;;;;;;;;1.75;1.75;;;;;18.64;57.22;100057.75;5082310;28;45245;-56
2021/08/06 05:40:31;;;;;;;;;2.50;1.00;;;;;18.65;57.25;100058.59;5082277;27;45266;-57
2021/08/06 05:42:56;;;;;;;;;4.00;3.25;;;;;18.68;57.34;100059.28;5080767;28;45521;-57
2021/08/06 05:45:22;;;;;;;;;3.25;2.75;;;;;18.66;57.29;100057.66;5082007;28;46921;-56
2021/08/06 05:47:51;;;;;;;;;2.50;1.50;;;;;18.67;57.62;100065.53;5082173;28;45492;-58
2021/08/06 05:50:18;;;;;;;;;1.00;1.00;;;;;18.67;57.52;100068.19;5081649;27;45769;-57
2021/08/06 05:52:43;;;;;;;;;1.00;1.00;;;;;18.69;57.72;100057.47;5081908;28;45568;-58
2021/08/06 05:55:10;;;;;;;;;1.00;1.00;;;;;18.70;57.42;100055.69;5063435;28;45262;-57
2021/08/06 05:57:35;;;;;;;;;1.00;1.00;;;;;18.63;57.47;100048.06;5081867;28;45212;-57
2021/08/06 06:00:00;;;;;;;;;1.00;1.00;;;;;18.64;57.71;100046.22;5080431;27;45211;-57
2021/08/06 06:02:26;;;;;;;;;2.25;1.00;;;;;18.65;57.68;100056.81;5081806;28;45402;-57
2021/08/06 06:04:51;;;;;;;;;2.00;1.00;;;;;18.67;57.64;100054.91;5081508;28;46894;-58
2021/08/06 06:07:17;;;;;;;;;2.00;0.75;;;;;18.67;57.42;100068.19;5081825;28;45321;-57
2021/08/06 06:09:42;;;;;;;;;0.25;0.25;;;;;18.67;57.34;100078.84;5081578;28;45303;-57
2021/08/06 06:12:07;;;;;;;;;2.00;2.00;;;;;18.65;57.84;100075.44;5081714;28;45295;-57
2021/08/06 06:14:33;;;;;;;;;2.25;0.75;;;;;18.64;57.51;100076.38;5081481;28;47177;-57
2021/08/06 06:16:58;;;;;;;;;0.75;0.25;;;;;18.65;57.48;100083.41;5081629;28;45260;-57
2021/08/06 06:19:24;;;;;;;;;2.00;1.00;;;;;18.65;57.49;100077.22;5081382;28;45254;-57
2021/08/06 06:21:49;;;;;;;;;2.25;1.75;;;;;18.62;57.48;100088.06;5080801;28;45292;-57
2021/08/06 06:24:14;;;;;;;;;2.00;0.75;;;;;18.62;57.72;100058.78;5080337;28;47135;-57
2021/08/06 06:26:40;;;;;;;;;1.00;0.75;;;;;18.62;57.69;100080.06;5081562;28;45293;-58
2021/08/06 06:29:05;;;;;;;;;4.00;3.00;;;;;18.62;57.61;100075.59;5080053;28;45232;-57
2021/08/06 06:31:31;;;;;;;;;1.75;1.50;;;;;18.64;57.53;100078.16;5081217;27;45585;-57
2021/08/06 06:33:56;;;;;;;;;1.00;1.00;;;;;18.65;57.88;100075.44;5080963;28;46116;-57
2021/08/06 06:36:21;;;;;;;;;1.75;1.75;;;;;18.69;57.58;100078.75;5081446;28;45433;-57
2021/08/06 06:38:47;;;;;;;;;1.00;0.00;;;;;18.65;57.68;100067.47;5081356;28;45512;-57
2021/08/06 06:41:12;;;;;;;;;2.00;1.00;;;;;18.63;57.73;100069.34;5081269;28;45576;-57
2021/08/06 06:43:37;;;;;;;;;1.25;0.50;;;;;18.66;57.69;100073.63;5081116;28;45251;-57
2021/08/06 06:46:03;;;;;;;;;0.00;0.00;;;;;18.71;57.56;100078.69;5081163;28;45223;-57
2021/08/06 06:48:28;;;;;;;;;1.00;1.00;;;;;18.70;57.55;100076.97;5081152;28;45434;-58
2021/08/06 06:50:54;;;;;;;;;1.75;1.75;;;;;18.67;57.57;100072.69;5080772;28;45495;-57
2021/08/06 06:53:20;;;;;;;;;3.00;0.00;;;;;18.69;57.58;100084.06;5080844;28;45921;-57
2021/08/06 06:55:46;;;;;;;;;2.00;2.00;;;;;18.72;57.72;100083.91;5081074;28;45412;-57
2021/08/06 06:58:15;;;;;;;;;1.00;1.00;;;;;18.75;57.38;100094.34;5079462;28;45357;-58
2021/08/06 07:00:41;;;;;;;;;3.75;2.00;;;;;18.73;57.61;100104.25;5079727;27;45565;-57
2021/08/06 07:03:06;;;;;;;;;2.00;2.00;;;;;18.75;57.45;100107.66;5080642;28;45212;-57
2021/08/06 07:05:31;;;;;;;;;0.33;0.33;;;;;18.79;57.83;100108.34;5080785;28;45303;-57
2021/08/06 07:07:57;;;;;;;;;4.00;1.25;;;;;18.80;57.88;100102.97;5080859;28;45488;-58
2021/08/06 07:10:23;;;;;;;;;1.50;1.00;;;;;18.84;57.39;100104.47;5079308;27;45507;-57
2021/08/06 07:12:49;;;;;;;;;1.00;1.00;;;;;18.82;57.63;100108.19;5080375;28;46281;-57
2021/08/06 07:15:14;;;;;;;;;0.00;0.00;;;;;18.84;57.77;100099.16;5079720;28;45759;-58
2021/08/06 07:17:41;;;;;;;;;2.33;1.00;;;;;18.81;57.63;100099.31;5080620;28;45499;-58
2021/08/06 07:20:09;;;;;;;;;2.00;2.00;;;;;18.87;57.74;100108.75;5080480;28;45543;-57
2021/08/06 07:22:35;;;;;;;;;0.00;0.00;;;;;18.86;57.91;100112.38;5079947;28;45495;-58
2021/08/06 07:25:01;;;;;;;;;2.00;1.50;;;;;18.78;57.64;100099.53;5080100;28;45266;-58
2021/08/06 07:27:26;;;;;;;;;3.50;2.00;;;;;18.89;57.63;100106.00;5079947;28;45328;-57
2021/08/06 07:29:52;;;;;;;;;1.50;1.50;;;;;18.90;57.66;100091.75;5062062;27;45525;-57
2021/08/06 07:32:18;;;;;;;;;2.00;1.00;;;;;18.91;57.31;100112.13;5078905;28;45478;-58
2021/08/06 07:34:43;;;;;;;;;1.00;1.00;;;;;18.91;57.63;100104.16;5079797;28;45240;-58
2021/08/06 07:37:09;;;;;;;;;2.00;1.00;;;;;18.95;57.41;100103.03;5080336;28;45150;-57
2021/08/06 07:39:35;;;;;;;;;0.75;0.75;;;;;18.95;57.48;100095.03;5078841;28;45276;-58
2021/08/06 07:42:00;;;;;;;;;0.00;0.00;;;;;18.97;57.59;100109.97;5079941;28;45495;-58
2021/08/06 07:44:25;;;;;;;;;0.25;0.25;;;;;19.02;57.76;100112.38;5078781;28;45311;-58
2021/08/06 07:46:51;;;;;;;;;2.25;1.25;;;;;19.05;57.43;100127.28;5080203;28;45354;-58
2021/08/06 07:49:16;;;;;;;;;2.50;1.50;;;;;19.04;57.30;100142.41;5079607;28;45327;-58
2021/08/06 07:51:42;;;;;;;;;1.75;1.00;;;;;19.06;57.25;100119.22;5079736;28;45917;-58
2021/08/06 07:54:07;;;;;;;;;1.50;1.00;;;;;19.09;57.53;100128.81;5045023;28;45300;-59
2021/08/06 07:56:33;;;;;;;;;3.00;2.00;;;;;19.10;57.19;100128.72;5080047;28;45449;-57
2021/08/06 07:58:58;;;;;;;;;2.00;2.00;;;;;19.15;57.48;100134.63;5079693;28;45311;-59
2021/08/06 08:01:24;;;;;;;;;6.75;6.25;;;;;19.18;57.08;100133.59;5079617;27;45300;-57
2021/08/06 08:03:49;;;;;;;;;0.00;0.00;;;;;19.19;57.35;100135.31;5080024;28;45315;-57
2021/08/06 08:06:15;;;;;;;;;1.00;1.00;;;;;19.22;57.18;100142.25;5080221;28;45317;-57
2021/08/06 08:08:41;;;;;;;;;0.33;0.33;;;;;19.22;57.23;100131.59;5080004;28;45507;-57
2021/08/06 08:11:07;;;;;;;;;2.00;1.75;;;;;19.24;57.21;100162.50;5079711;27;45923;-58
2021/08/06 08:13:33;;;;;;;;;0.00;0.00;;;;;19.27;57.41;100145.50;5080209;28;45254;-57
2021/08/06 08:15:59;;;;;;;;;1.00;1.00;;;;;19.28;56.98;100152.53;5045184;28;45478;-57
2021/08/06 08:18:24;;;;;;;;;1.00;0.00;;;;;19.31;57.24;100147.03;5080233;28;45285;-57
2021/08/06 08:20:50;;;;;;;;;1.00;1.00;;;;;19.32;57.53;100143.44;5079254;27;46050;-57
2021/08/06 08:23:17;;;;;;;;;4.25;1.00;;;;;19.28;57.15;100153.41;5079839;27;45845;-57
2021/08/06 08:25:42;;;;;;;;;3.00;1.75;;;;;19.31;57.20;100169.19;5080127;28;45286;-58
2021/08/06 08:28:08;;;;;;;;;0.33;0.33;;;;;19.33;57.42;100147.78;5079621;28;45225;-58
2021/08/06 08:30:33;;;;;;;;;0.00;0.00;;;;;19.34;57.46;100149.50;5079592;28;45725;-58
2021/08/06 08:32:59;;;;;;;;;4.00;1.00;;;;;19.35;57.21;100140.56;5079739;28;45240;-58
2021/08/06 08:35:25;;;;;;;;;4.00;1.00;;;;;19.39;57.21;100157.22;5079629;27;45310;-58
2021/08/06 08:37:50;;;;;;;;;2.00;1.00;;;;;19.39;57.23;100151.91;5079729;28;45441;-58
2021/08/06 08:40:15;;;;;;;;;1.00;1.00;;;;;19.41;57.11;100155.34;5079635;28;45514;-58
2021/08/06 08:42:43;;;;;;;;;1.00;1.00;;;;;19.40;57.21;100154.47;5078400;28;45327;-58
2021/08/06 08:45:09;;;;;;;;;1.00;1.00;;;;;19.41;56.88;100155.34;5083040;28;45444;-58
2021/08/06 08:47:36;;;;;;;;;1.00;1.00;;;;;19.43;56.85;100142.78;5083000;28;45243;-57
2021/08/06 08:50:05;;;;;;;;;0.00;0.00;;;;;19.41;56.93;100161.53;5082560;27;45445;-57
2021/08/06 08:52:31;;;;;;;;;1.67;1.00;;;;;19.48;57.13;100156.66;5081842;28;45399;-58
2021/08/06 08:54:57;;;;;;;;;0.00;0.00;;;;;19.51;56.72;100150.28;5081846;28;45282;-57
2021/08/06 08:57:24;;;;;;;;;0.67;0.67;;;;;19.49;57.35;100156.56;5064692;28;45491;-57
2021/08/06 08:59:52;;;;;;;;;0.00;0.00;;;;;19.53;56.77;100156.41;5082790;28;45521;-58
2021/08/06 09:02:17;;;;;;;;;1.33;1.00;;;;;19.55;56.58;100160.69;5082907;28;45576;-57
2021/08/06 09:04:44;;;;;;;;;1.25;1.25;;;;;19.57;56.20;100165.91;5082591;28;45414;-57
2021/08/06 09:07:30;;;;;;;;;0.75;0.75;;;;;19.62;56.54;100162.03;5082955;28;45505;-57
2021/08/06 09:10:08;;;;;;;;;1.75;0.75;;;;;19.62;56.44;100166.47;5081006;27;46358;-57
2021/08/06 09:12:52;;;;;;;;;2.00;0.75;;;;;19.63;56.55;100182.41;5081164;28;45247;-57
2021/08/06 09:15:38;;;;;;;;;0.33;0.33;;;;;19.64;56.90;100175.25;5082818;28;45320;-58
2021/08/06 09:18:03;;;;;;;;;1.67;1.00;;;;;19.65;56.50;100183.16;5082352;28;45632;-57
2021/08/06 09:20:39;;;;;;;;;3.00;1.00;;;;;19.66;56.26;100192.00;5081967;27;46172;-58
2021/08/06 09:23:05;;;;;;;;;1.75;1.25;;;;;19.71;55.99;100181.06;5082309;27;45420;-58
2021/08/06 09:25:35;;;;;;;;;0.00;0.00;;;;;19.72;56.01;100175.66;5081395;28;45273;-58
2021/08/06 09:28:03;;;;;;;;;1.00;1.00;;;;;19.75;56.43;100185.25;5082269;28;45382;-58
2021/08/06 09:30:38;;;;;;;;;0.00;0.00;;;;;19.76;56.57;100178.97;5080971;27;46158;-57
2021/08/06 09:33:07;;;;;;;;;0.00;0.00;;;;;19.72;56.11;100194.31;5082191;28;45238;-58
2021/08/06 09:35:34;;;;;;;;;0.00;0.00;;;;;19.75;56.52;100183.44;5080943;28;45350;-57
2021/08/06 09:38:00;;;;;;;;;0.00;0.00;;;;;19.77;55.96;100184.22;5082371;28;45489;-58
2021/08/06 09:40:28;;;;;;;;;1.00;1.00;;;;;19.77;56.46;100162.91;5080847;27;47475;-57
2021/08/06 09:42:57;;;;;;;;;2.67;1.00;;;;;19.80;55.97;100192.00;5082023;28;45269;-57
2021/08/06 09:45:26;;;;;;;;;1.33;1.33;;;;;19.86;56.21;100187.28;5082160;28;45324;-57
2021/08/06 09:47:58;;;;;;;;;2.67;1.00;;;;;19.89;55.87;100190.63;5082400;28;45391;-57
2021/08/06 09:50:36;;;;;;;;;0.33;0.00;;;;;19.93;56.18;100192.13;5081663;27;46055;-57
2021/08/06 09:53:03;;;;;;;;;1.33;1.00;;;;;19.97;56.32;100190.13;5082041;28;45233;-57
2021/08/06 09:55:33;;;;;;;;;2.00;1.00;;;;;19.97;55.95;100191.00;5081177;28;45458;-58
2021/08/06 09:58:01;;;;;;;;;2.00;2.00;;;;;20.00;56.01;100184.63;5081743;28;45311;-57
2021/08/06 10:00:27;;;;;;;;;1.00;0.67;;;;;19.99;55.89;100193.56;5081505;27;46265;-57
2021/08/06 10:02:55;;;;;;;;;1.00;1.00;;;;;19.95;56.15;100190.25;5080463;28;45513;-58
2021/08/06 10:05:23;;;;;;;;;1.67;0.67;;;;;19.97;55.95;100188.34;5080294;28;45440;-58
2021/08/06 10:07:54;;;;;;;;;1.33;1.00;;;;;20.00;56.16;100184.63;5080540;28;45979;-58
2021/08/06 10:10:25;;;;;;;;;3.00;1.00;;;;;20.04;55.76;100179.97;5081753;28;46406;-58
2021/08/06 10:12:51;;;;;;;;;0.00;0.00;;;;;20.03;55.87;100186.25;5080176;28;45304;-57
2021/08/06 10:15:18;;;;;;;;;0.33;0.33;;;;;20.06;56.37;100189.59;5081981;27;45239;-59
2021/08/06 10:17:44;;;;;;;;;2.00;1.00;;;;;20.09;55.95;100189.38;5081488;27;45461;-58
2021/08/06 10:20:13;;;;;;;;;0.00;0.00;;;;;20.17;55.46;100198.72;5081283;27;45196;-57
2021/08/06 10:22:39;;;;;;;;;1.00;1.00;;;;;20.19;56.01;100200.31;5081179;27;45334;-58
2021/08/06 10:25:09;;;;;;;;;2.00;1.00;;;;;20.21;56.25;100202.88;5081770;28;45290;-58
2021/08/06 10:27:35;;;;;;;;;0.67;0.67;;;;;20.23;55.45;100203.66;5097034;27;45469;-58
2021/08/06 10:30:03;;;;;;;;;0.33;0.33;;;;;20.26;55.73;100204.34;5081258;27;46340;-57
2021/08/06 10:32:29;;;;;;;;;1.00;1.00;;;;;20.26;55.56;100184.78;5079724;28;45494;-58
2021/08/06 10:35:15;;;;;;;;;1.00;1.00;;;;;20.32;55.73;100203.06;5081253;27;45318;-58
2021/08/06 10:37:50;;;;;;;;;1.00;0.00;;;;;20.35;55.48;100192.22;5081133;28;45254;-58
2021/08/06 10:40:38;;;;;;;;;1.00;1.00;;;;;20.38;55.52;100201.84;5081119;27;47150;-57
2021/08/06 10:43:09;;;;;;;;;1.67;1.00;;;;;20.39;55.14;100201.72;5081091;28;45229;-57
2021/08/06 10:45:58;;;;;;;;;1.00;1.00;;;;;20.45;55.34;100203.13;5081147;28;45402;-57
2021/08/06 10:48:26;;;;;;;;;3.00;1.67;;;;;20.49;55.39;100199.34;5071599;28;46256;-57
2021/08/06 10:51:16;;;;;;;;;1.00;1.00;;;;;20.52;54.99;100201.78;5080722;28;45180;-56
2021/08/06 10:53:48;;;;;;;;;2.50;1.00;;;;;20.51;55.37;100213.41;5080879;27;45226;-57
2021/08/06 10:56:16;;;;;;;;;2.75;1.00;;;;;20.52;55.45;100201.78;5081326;28;45368;-57
2021/08/06 10:58:54;;;;;;;;;1.00;1.00;;;;;20.56;54.98;100199.78;5079423;28;45461;-58
2021/08/06 11:01:25;;;;;;;;;1.00;1.00;;;;;20.61;54.68;100205.69;5079478;28;46364;-58
2021/08/06 11:04:15;;;;;;;;;0.25;0.25;;;;;20.63;54.68;100196.63;5080624;28;45330;-58
2021/08/06 11:06:47;;;;;;;;;3.33;1.00;;;;;20.72;55.20;100199.69;5060983;28;45361;-57
2021/08/06 11:09:22;;;;;;;;;1.00;1.00;;;;;20.76;54.86;100199.38;5081047;28;45215;-58
2021/08/06 11:12:10;;;;;;;;;3.00;0.33;;;;;20.83;54.50;100198.97;5080442;27;45298;-58
2021/08/06 11:14:36;;;;;;;;;0.67;0.00;;;;;20.85;54.72;100195.22;5080601;27;45307;-58
2021/08/06 11:17:15;;;;;;;;;0.50;0.50;;;;;20.90;54.29;100197.59;5080810;28;45326;-58
2021/08/06 11:20:04;;;;;;;;;0.00;0.00;;;;;20.93;54.03;100192.09;5080464;28;45357;-58
2021/08/06 11:22:32;;;;;;;;;0.67;0.00;;;;;20.99;53.85;100205.00;5078541;28;47499;-58
2021/08/06 11:25:05;;;;;;;;;1.00;1.00;;;;;21.04;54.06;100196.69;5080734;28;45394;-58
2021/08/06 11:27:36;;;;;;;;;1.67;0.00;;;;;21.05;54.03;100198.41;5080487;28;45231;-58
2021/08/06 11:30:07;;;;;;;;;1.00;1.00;;;;;21.10;54.07;100201.63;5080637;28;45373;-58